Time;durP1;ratioP1;P1;durP2;ratioP2;P2;SDS_P1;SDS_P2;PMS_P1;PMS_P2;Temp;Humidity;BMP_temperature;BMP_pressure;BME280_temperature;BME280_humidity;BME280_pressure;Samples;Min_cycle;Max_cycle;Signal;HPM_P1;HPM_P2
2021/12/03 00:00:58;;;;;;;11.10;5.60;;;0.40;99.90;;;;;;5028451;28;20076;-60
2021/12/03 00:03:24;;;;;;;15.48;6.18;;;0.40;99.90;;;;;;5031903;28;20046;-60
2021/12/03 00:05:52;;;;;;;11.18;6.88;;;0.40;99.90;;;;;;4994329;28;20511;-59
2021/12/03 00:08:19;;;;;;;13.23;6.50;;;0.40;99.90;;;;;;4992113;28;20452;-60
2021/12/03 00:10:50;;;;;;;13.02;7.32;;;0.40;99.90;;;;;;4977545;28;20093;-60
2021/12/03 00:13:17;;;;;;;14.13;8.00;;;0.40;99.90;;;;;;4974711;28;20060;-60
2021/12/03 00:15:43;;;;;;;15.02;8.90;;;0.30;99.90;;;;;;4992888;28;20038;-60
2021/12/03 00:18:09;;;;;;;17.45;10.18;;;0.40;99.90;;;;;;4992133;28;20078;-59
2021/12/03 00:20:36;;;;;;;14.18;10.70;;;0.40;99.90;;;;;;4973668;28;20080;-60
2021/12/03 00:23:04;;;;;;;20.27;11.80;;;0.50;99.90;;;;;;4991970;28;20046;-57
2021/12/03 00:25:31;;;;;;;17.00;12.75;;;0.60;99.90;;;;;;4992404;28;20477;-58
2021/12/03 00:27:57;;;;;;;18.90;11.75;;;0.60;99.90;;;;;;4990065;28;20145;-58
2021/12/03 00:30:23;;;;;;;15.88;11.02;;;0.60;99.90;;;;;;4988726;28;20580;-57
2021/12/03 00:32:49;;;;;;;18.17;11.20;;;0.60;99.90;;;;;;4988837;28;20092;-58
2021/12/03 00:35:17;;;;;;;13.55;9.52;;;0.60;99.90;;;;;;5005975;28;20046;-58
2021/12/03 00:37:45;;;;;;;15.68;10.73;;;0.60;99.90;;;;;;4989923;28;20054;-59
2021/12/03 00:40:14;;;;;;;15.35;8.82;;;0.70;99.90;;;;;;4974118;28;20049;-60
2021/12/03 00:42:41;;;;;;;12.55;8.70;;;0.70;99.90;;;;;;4974018;28;20109;-60
2021/12/03 00:45:10;;;;;;;33.80;9.55;;;0.70;99.90;;;;;;4975322;28;20058;-57
2021/12/03 00:47:37;;;;;;;16.17;9.15;;;0.70;99.90;;;;;;4991315;28;20459;-57
2021/12/03 00:50:05;;;;;;;13.88;8.38;;;0.80;99.90;;;;;;4973988;28;20065;-59
2021/12/03 00:52:31;;;;;;;12.48;8.02;;;0.80;99.90;;;;;;4987183;28;20072;-58
2021/12/03 00:54:57;;;;;;;14.65;8.07;;;0.80;99.90;;;;;;4990473;28;20086;-58
2021/12/03 00:57:23;;;;;;;13.55;8.13;;;0.80;99.90;;;;;;4992477;28;20047;-58
2021/12/03 00:59:49;;;;;;;16.23;9.10;;;0.80;99.90;;;;;;4973871;28;20050;-58
2021/12/03 01:02:17;;;;;;;12.18;7.90;;;0.80;99.90;;;;;;4992392;28;20050;-58
2021/12/03 01:04:46;;;;;;;15.43;8.60;;;0.80;99.90;;;;;;4990628;28;20053;-58
2021/12/03 01:07:13;;;;;;;18.48;9.45;;;0.90;99.90;;;;;;4989740;28;20053;-58
2021/12/03 01:09:39;;;;;;;16.50;11.07;;;0.80;99.90;;;;;;4989240;28;20050;-58
2021/12/03 01:12:06;;;;;;;18.70;11.95;;;0.80;99.90;;;;;;4990076;28;20101;-59
2021/12/03 01:14:33;;;;;;;22.15;12.90;;;0.80;99.90;;;;;;4972812;28;20450;-59
2021/12/03 01:16:59;;;;;;;23.50;13.93;;;0.90;99.90;;;;;;4990413;28;20125;-58
2021/12/03 01:19:25;;;;;;;17.50;13.50;;;0.90;99.90;;;;;;4989843;28;20413;-58
2021/12/03 01:21:51;;;;;;;25.48;15.35;;;0.90;99.90;;;;;;4988242;28;20053;-59
2021/12/03 01:24:18;;;;;;;25.55;16.27;;;0.90;99.90;;;;;;4991201;28;20098;-58
2021/12/03 01:26:45;;;;;;;24.23;16.38;;;0.90;99.90;;;;;;4973672;28;20046;-59
2021/12/03 01:29:11;;;;;;;28.70;19.52;;;0.90;99.90;;;;;;4989736;28;20054;-58
2021/12/03 01:31:38;;;;;;;25.70;18.77;;;0.90;99.90;;;;;;4990390;28;20124;-58
2021/12/03 01:34:04;;;;;;;24.73;19.30;;;0.90;99.90;;;;;;4988271;28;20046;-58
2021/12/03 01:36:30;;;;;;;27.35;18.17;;;0.90;99.90;;;;;;5005383;28;20038;-58
2021/12/03 01:38:57;;;;;;;24.23;18.63;;;0.90;99.90;;;;;;4990068;28;20046;-58
2021/12/03 01:41:23;;;;;;;24.48;19.35;;;1.00;99.90;;;;;;4987608;28;20042;-59
2021/12/03 01:43:50;;;;;;;27.25;20.30;;;0.90;99.90;;;;;;4990499;28;20100;-58
2021/12/03 01:46:19;;;;;;;23.20;19.08;;;0.90;99.90;;;;;;4990669;28;20181;-58
2021/12/03 01:48:45;;;;;;;25.15;19.40;;;1.00;99.90;;;;;;4989428;28;20547;-59
2021/12/03 01:51:12;;;;;;;25.77;20.10;;;1.00;99.90;;;;;;4990605;28;20057;-58
2021/12/03 01:53:40;;;;;;;23.77;20.00;;;0.90;99.90;;;;;;4990872;28;20505;-58
2021/12/03 01:56:10;;;;;;;27.50;20.42;;;0.90;99.90;;;;;;4973236;28;20082;-59
2021/12/03 01:58:37;;;;;;;29.35;22.55;;;0.90;99.90;;;;;;4970976;28;20053;-58
2021/12/03 02:01:08;;;;;;;28.80;23.05;;;0.90;99.90;;;;;;5006369;28;20525;-59
2021/12/03 02:03:36;;;;;;;29.60;24.60;;;0.90;99.90;;;;;;4973886;28;20058;-58
2021/12/03 02:06:04;;;;;;;31.33;24.77;;;0.90;99.90;;;;;;4982521;28;20057;-59
2021/12/03 02:08:31;;;;;;;32.58;25.67;;;0.90;99.90;;;;;;5008922;28;20136;-59
2021/12/03 02:10:57;;;;;;;32.17;25.83;;;0.90;99.90;;;;;;5008315;28;20076;-58
2021/12/03 02:13:24;;;;;;;32.88;26.95;;;0.90;99.90;;;;;;5007357;28;20386;-59
2021/12/03 02:15:51;;;;;;;32.42;27.13;;;0.90;99.90;;;;;;5009409;28;20132;-59
2021/12/03 02:18:18;;;;;;;34.83;27.48;;;0.90;99.90;;;;;;5006286;28;20089;-59
2021/12/03 02:20:58;;;;;;;30.90;27.45;;;0.90;99.90;;;;;;5007896;28;20504;-58
2021/12/03 02:23:26;;;;;;;33.65;28.00;;;0.90;99.90;;;;;;5010020;28;20109;-59
2021/12/03 02:25:52;;;;;;;32.63;28.42;;;0.90;99.90;;;;;;5009467;28;20056;-59
2021/12/03 02:28:21;;;;;;;30.58;26.95;;;0.90;99.90;;;;;;5009526;28;20144;-59
2021/12/03 02:30:49;;;;;;;36.40;26.35;;;0.90;99.90;;;;;;5008134;28;20136;-58
2021/12/03 02:33:16;;;;;;;30.02;26.83;;;0.90;99.90;;;;;;5008904;28;20072;-59
2021/12/03 02:35:44;;;;;;;29.38;25.42;;;0.80;99.90;;;;;;5000596;28;20374;-59
2021/12/03 02:38:14;;;;;;;33.65;26.13;;;0.90;99.90;;;;;;5009217;28;20046;-59
2021/12/03 02:40:42;;;;;;;31.30;24.63;;;0.90;99.90;;;;;;4990579;28;20045;-59
2021/12/03 02:43:08;;;;;;;28.42;25.30;;;0.90;99.90;;;;;;5004120;28;20481;-59
2021/12/03 02:45:35;;;;;;;36.95;27.40;;;0.90;99.90;;;;;;5006916;28;20050;-58
2021/12/03 02:48:03;;;;;;;29.77;25.90;;;0.90;99.90;;;;;;4991791;28;20053;-58
2021/12/03 02:50:30;;;;;;;32.22;26.98;;;0.90;99.90;;;;;;5009032;28;20552;-59
2021/12/03 02:52:56;;;;;;;30.38;25.88;;;0.90;99.90;;;;;;5012351;28;20100;-59
2021/12/03 02:55:23;;;;;;;29.98;26.90;;;0.80;99.90;;;;;;5009625;28;20046;-59
2021/12/03 02:57:49;;;;;;;27.27;24.42;;;0.90;99.90;;;;;;5006365;28;20133;-58
2021/12/03 03:00:20;;;;;;;28.30;25.30;;;0.90;99.90;;;;;;5007618;28;20407;-59
2021/12/03 03:02:47;;;;;;;30.43;23.57;;;0.80;99.90;;;;;;4993649;28;20046;-59
2021/12/03 03:05:15;;;;;;;27.90;24.58;;;0.80;99.90;;;;;;5013795;28;20092;-59
2021/12/03 03:07:42;;;;;;;27.70;24.73;;;0.80;99.90;;;;;;4978531;28;20052;-59
2021/12/03 03:10:11;;;;;;;29.10;23.48;;;0.80;99.90;;;;;;5029085;28;20106;-59
2021/12/03 03:12:38;;;;;;;29.27;24.95;;;0.80;99.90;;;;;;5011441;28;20057;-59
2021/12/03 03:15:06;;;;;;;27.85;24.52;;;0.80;99.90;;;;;;5014376;28;20046;-59
2021/12/03 03:17:33;;;;;;;29.67;25.80;;;0.80;99.90;;;;;;5010589;28;20497;-58
2021/12/03 03:20:00;;;;;;;30.75;26.02;;;0.70;99.90;;;;;;5010928;28;20538;-59
2021/12/03 03:22:27;;;;;;;29.38;26.38;;;0.70;99.90;;;;;;5010117;28;20041;-59
2021/12/03 03:24:59;;;;;;;28.58;25.52;;;0.80;99.90;;;;;;5011445;28;20045;-59
2021/12/03 03:27:27;;;;;;;29.13;24.95;;;0.70;99.90;;;;;;5010395;28;20037;-59
2021/12/03 03:29:54;;;;;;;29.58;25.92;;;0.80;99.90;;;;;;5011115;28;20053;-58
2021/12/03 03:32:21;;;;;;;30.17;25.88;;;0.70;99.90;;;;;;5010389;28;20537;-59
2021/12/03 03:34:48;;;;;;;28.70;25.70;;;0.80;99.90;;;;;;5027686;28;20041;-59
2021/12/03 03:37:14;;;;;;;28.67;25.65;;;0.70;99.90;;;;;;5030678;28;20049;-59
2021/12/03 03:39:42;;;;;;;28.35;25.45;;;0.70;99.90;;;;;;5033120;28;20061;-59
2021/12/03 03:42:08;;;;;;;28.90;25.00;;;0.70;99.90;;;;;;4983066;28;20606;-59
2021/12/03 03:44:35;;;;;;;28.70;25.50;;;0.70;99.90;;;;;;5029697;28;20049;-59
2021/12/03 03:47:02;;;;;;;28.38;25.58;;;0.70;99.90;;;;;;5032966;28;20041;-59
2021/12/03 03:49:29;;;;;;;29.67;26.42;;;0.70;99.90;;;;;;5013975;28;20127;-59
2021/12/03 03:51:56;;;;;;;30.00;26.73;;;0.70;99.90;;;;;;5032421;28;20474;-59
2021/12/03 03:54:22;;;;;;;28.10;25.27;;;0.70;99.90;;;;;;5018572;28;20046;-59
2021/12/03 03:56:48;;;;;;;32.38;25.67;;;0.70;99.90;;;;;;5032752;28;20485;-59
2021/12/03 03:59:17;;;;;;;29.15;25.85;;;0.80;99.90;;;;;;5014828;28;20046;-59
2021/12/03 04:01:48;;;;;;;33.15;26.98;;;0.80;99.90;;;;;;5029002;28;20086;-58
2021/12/03 04:04:15;;;;;;;28.20;25.27;;;0.70;99.90;;;;;;5014593;28;20120;-58
2021/12/03 04:06:42;;;;;;;28.38;25.55;;;0.80;99.90;;;;;;5015469;28;20061;-58
2021/12/03 04:09:08;;;;;;;27.55;24.73;;;0.80;99.90;;;;;;5032339;28;20041;-58
2021/12/03 04:11:35;;;;;;;27.65;24.75;;;0.80;99.90;;;;;;5015471;28;20144;-58
2021/12/03 04:14:01;;;;;;;25.92;23.15;;;0.90;99.90;;;;;;4996820;28;20132;-58
2021/12/03 04:16:28;;;;;;;25.67;22.98;;;0.80;99.90;;;;;;5031551;28;20122;-58
2021/12/03 04:18:54;;;;;;;27.50;24.60;;;0.70;99.90;;;;;;5014272;28;20045;-59
2021/12/03 04:21:21;;;;;;;26.80;23.63;;;0.80;99.90;;;;;;5031859;28;20045;-58
2021/12/03 04:23:47;;;;;;;25.75;23.05;;;0.70;99.90;;;;;;5024378;28;20046;-58
2021/12/03 04:26:14;;;;;;;29.23;25.75;;;0.70;99.90;;;;;;4998332;28;20131;-58
2021/12/03 04:28:40;;;;;;;27.60;24.00;;;0.70;99.90;;;;;;5032310;28;20481;-58
2021/12/03 04:31:06;;;;;;;27.08;24.38;;;0.70;99.90;;;;;;5031598;28;20045;-59
2021/12/03 04:33:32;;;;;;;26.67;23.88;;;0.70;99.90;;;;;;5012899;28;20053;-60
2021/12/03 04:35:58;;;;;;;28.45;24.38;;;0.70;99.90;;;;;;5031507;28;20049;-59
2021/12/03 04:38:24;;;;;;;28.75;23.10;;;0.70;99.90;;;;;;5032479;28;20289;-58
2021/12/03 04:40:51;;;;;;;27.50;24.35;;;0.80;99.90;;;;;;5034664;28;20400;-59
2021/12/03 04:43:17;;;;;;;26.85;24.23;;;0.80;99.90;;;;;;5012497;28;20045;-58
2021/12/03 04:45:43;;;;;;;27.13;24.48;;;0.80;99.90;;;;;;5031718;28;20057;-59
2021/12/03 04:48:10;;;;;;;27.85;24.98;;;0.80;99.90;;;;;;5012841;28;20056;-59
2021/12/03 04:50:39;;;;;;;27.85;24.98;;;0.90;99.90;;;;;;4982317;28;20045;-59
2021/12/03 04:53:07;;;;;;;27.67;24.77;;;0.80;99.90;;;;;;5032076;28;20045;-59
2021/12/03 04:55:33;;;;;;;27.67;24.75;;;0.90;99.90;;;;;;5031519;28;20045;-58
2021/12/03 04:58:00;;;;;;;27.13;24.23;;;0.90;99.90;;;;;;5012620;28;20052;-59
2021/12/03 05:00:33;;;;;;;26.88;24.02;;;0.90;99.90;;;;;;5032857;28;20057;-59
2021/12/03 05:03:00;;;;;;;27.48;24.67;;;0.90;99.90;;;;;;5031140;28;20045;-60
2021/12/03 05:05:31;;;;;;;26.40;23.88;;;1.00;99.90;;;;;;5013529;28;20416;-59
2021/12/03 05:07:58;;;;;;;28.33;23.27;;;1.00;99.90;;;;;;5012562;28;20413;-58
2021/12/03 05:10:30;;;;;;;27.95;24.30;;;0.90;99.90;;;;;;4981152;28;20051;-58
2021/12/03 05:13:03;;;;;;;26.30;23.55;;;0.90;99.90;;;;;;5012583;28;20046;-59
2021/12/03 05:15:30;;;;;;;26.92;24.02;;;0.90;99.90;;;;;;4996133;28;20053;-59
2021/12/03 05:17:56;;;;;;;28.35;25.13;;;0.80;99.90;;;;;;5013087;28;20072;-59
2021/12/03 05:20:22;;;;;;;28.25;25.15;;;0.80;99.90;;;;;;5031755;28;20512;-58
2021/12/03 05:22:48;;;;;;;29.08;26.08;;;0.90;99.90;;;;;;5013969;28;20084;-59
2021/12/03 05:25:14;;;;;;;29.00;24.77;;;0.80;99.90;;;;;;5031033;28;20087;-58
2021/12/03 05:27:40;;;;;;;29.45;25.73;;;0.90;99.90;;;;;;5030327;28;20111;-59
2021/12/03 05:30:08;;;;;;;27.48;24.63;;;0.90;99.90;;;;;;5013070;28;20053;-59
2021/12/03 05:32:35;;;;;;;27.80;24.73;;;0.90;99.90;;;;;;4995337;28;20060;-59
2021/12/03 05:35:01;;;;;;;28.63;25.48;;;0.90;99.90;;;;;;5030166;28;20045;-59
2021/12/03 05:37:27;;;;;;;26.92;24.13;;;1.00;99.90;;;;;;4996988;28;20106;-59
2021/12/03 05:39:53;;;;;;;31.48;24.70;;;1.00;99.90;;;;;;4996936;28;20049;-59
2021/12/03 05:42:19;;;;;;;27.83;23.70;;;1.00;99.90;;;;;;4995705;28;20045;-59
2021/12/03 05:44:45;;;;;;;28.33;23.85;;;1.10;99.90;;;;;;4996637;28;20088;-59
2021/12/03 05:47:11;;;;;;;26.17;23.10;;;1.10;99.90;;;;;;5032136;28;20131;-58
2021/12/03 05:49:37;;;;;;;33.80;23.42;;;1.20;99.90;;;;;;5029820;28;20053;-59
2021/12/03 05:52:04;;;;;;;27.77;21.63;;;1.20;99.90;;;;;;5014532;28;20480;-59
2021/12/03 05:54:31;;;;;;;29.63;23.30;;;1.20;99.90;;;;;;5029713;28;20053;-59
2021/12/03 05:56:57;;;;;;;28.50;22.65;;;1.30;99.90;;;;;;5011171;28;20057;-58
2021/12/03 05:59:23;;;;;;;25.13;21.90;;;1.30;99.90;;;;;;4994733;28;20041;-59
2021/12/03 06:01:49;;;;;;;23.60;21.10;;;1.30;99.90;;;;;;5018432;28;20120;-59
2021/12/03 06:04:15;;;;;;;28.52;22.38;;;1.20;99.90;;;;;;5030467;28;20556;-59
2021/12/03 06:06:41;;;;;;;25.13;21.48;;;1.20;99.90;;;;;;5029306;28;20057;-59
2021/12/03 06:09:07;;;;;;;26.48;22.08;;;1.20;99.90;;;;;;5031571;28;20118;-59
2021/12/03 06:11:34;;;;;;;29.80;21.98;;;1.20;99.90;;;;;;5029770;28;20099;-59
2021/12/03 06:14:00;;;;;;;26.67;21.15;;;1.30;99.90;;;;;;5011237;28;20060;-59
2021/12/03 06:16:26;;;;;;;27.67;21.48;;;1.30;99.90;;;;;;5011356;28;20122;-59
2021/12/03 06:18:52;;;;;;;28.02;20.95;;;1.30;99.90;;;;;;5011019;28;20572;-59
2021/12/03 06:21:18;;;;;;;26.08;20.08;;;1.30;99.90;;;;;;5013053;28;20115;-59
2021/12/03 06:23:45;;;;;;;24.27;20.67;;;1.30;99.90;;;;;;5029420;28;20069;-58
2021/12/03 06:26:11;;;;;;;30.70;20.48;;;1.30;99.90;;;;;;5030260;28;20396;-59
2021/12/03 06:28:40;;;;;;;24.55;20.40;;;1.30;99.90;;;;;;5028207;28;20049;-59
2021/12/03 06:31:06;;;;;;;22.88;19.83;;;1.30;99.90;;;;;;5029841;28;20496;-60
2021/12/03 06:33:33;;;;;;;24.15;20.42;;;1.40;99.90;;;;;;5028265;28;20050;-52
2021/12/03 06:35:59;;;;;;;23.10;20.15;;;1.50;99.90;;;;;;5029949;28;20075;-59
2021/12/03 06:38:26;;;;;;;25.02;20.50;;;1.40;99.90;;;;;;5014392;28;20053;-59
2021/12/03 06:40:54;;;;;;;23.92;19.77;;;1.40;99.90;;;;;;4994203;28;20041;-59
2021/12/03 06:43:20;;;;;;;21.95;19.65;;;1.40;99.90;;;;;;5030484;28;20056;-59
2021/12/03 06:45:46;;;;;;;25.55;20.20;;;1.50;99.90;;;;;;5011399;28;20049;-58
2021/12/03 06:48:14;;;;;;;31.30;20.85;;;1.50;99.90;;;;;;5006657;28;20054;-59
2021/12/03 06:50:40;;;;;;;29.15;21.20;;;1.50;99.90;;;;;;5023036;28;20046;-58
2021/12/03 06:53:16;;;;;;;27.60;20.85;;;1.50;99.90;;;;;;5010386;28;20057;-58
2021/12/03 06:56:32;;;;;;;23.88;19.98;;;1.50;99.90;;;;;;5011745;28;20049;-58
2021/12/03 06:58:32;;;;;;;26.27;21.42;;;1.50;99.90;;;;;;4953713;28;20076;-58
2021/12/03 07:00:59;;;;;;;25.98;21.60;;;1.60;99.90;;;;;;5025989;28;20128;-55
2021/12/03 07:03:25;;;;;;;28.80;19.35;;;1.70;99.90;;;;;;5029253;28;20041;-58
2021/12/03 07:05:52;;;;;;;26.98;21.63;;;1.60;99.90;;;;;;5028257;28;20061;-58
2021/12/03 07:08:18;;;;;;;29.92;21.42;;;1.60;99.90;;;;;;5029098;28;20116;-59
2021/12/03 07:10:44;;;;;;;26.40;21.10;;;1.70;99.90;;;;;;4994653;28;20045;-58
2021/12/03 07:13:10;;;;;;;27.45;21.63;;;1.70;99.90;;;;;;5015966;28;20392;-58
2021/12/03 07:15:37;;;;;;;33.38;22.80;;;1.70;99.90;;;;;;5028539;28;20058;-59
2021/12/03 07:18:03;;;;;;;29.33;22.48;;;1.70;99.90;;;;;;5011423;28;20049;-57
2021/12/03 07:20:29;;;;;;;33.15;24.63;;;1.70;99.90;;;;;;5028847;28;20065;-58
2021/12/03 07:22:56;;;;;;;31.20;23.60;;;1.70;99.90;;;;;;5033845;28;20052;-58
2021/12/03 07:25:23;;;;;;;37.22;24.90;;;1.70;99.90;;;;;;4999295;28;20050;-59
2021/12/03 07:27:49;;;;;;;31.98;23.15;;;1.70;99.90;;;;;;4986861;28;20056;-59
2021/12/03 07:30:18;;;;;;;36.40;25.02;;;1.60;99.90;;;;;;4998648;28;20128;-59
2021/12/03 07:32:45;;;;;;;37.03;24.38;;;1.60;99.90;;;;;;5025654;28;20056;-59
2021/12/03 07:35:12;;;;;;;32.03;23.52;;;1.60;99.90;;;;;;5011515;28;20175;-59
2021/12/03 07:37:39;;;;;;;36.35;25.17;;;1.60;99.90;;;;;;5028838;28;20123;-59
2021/12/03 07:40:07;;;;;;;41.28;26.40;;;1.60;99.90;;;;;;5010737;28;20046;-58
2021/12/03 07:42:34;;;;;;;38.45;26.65;;;1.50;99.90;;;;;;5026805;28;20675;-59
2021/12/03 07:45:02;;;;;;;41.00;27.52;;;1.50;99.90;;;;;;5026063;28;20046;-59
2021/12/03 07:47:28;;;;;;;43.25;28.25;;;1.60;99.90;;;;;;4993918;28;20467;-59
2021/12/03 07:49:55;;;;;;;38.08;26.50;;;1.60;99.90;;;;;;5010051;28;20419;-60
2021/12/03 07:52:21;;;;;;;41.55;26.23;;;1.60;99.90;;;;;;5010693;28;20052;-59
2021/12/03 07:54:48;;;;;;;41.28;27.00;;;1.50;99.90;;;;;;5010373;28;20061;-59
2021/12/03 07:57:14;;;;;;;41.60;29.45;;;1.50;99.90;;;;;;5013188;28;20409;-57
2021/12/03 07:59:40;;;;;;;42.78;29.23;;;1.50;99.90;;;;;;5028526;28;20052;-58
2021/12/03 08:02:06;;;;;;;45.72;28.23;;;1.50;99.90;;;;;;5025797;28;20144;-57
2021/12/03 08:04:32;;;;;;;39.95;27.20;;;1.50;99.90;;;;;;5007939;28;20180;-57
2021/12/03 08:07:00;;;;;;;45.17;28.27;;;1.50;99.90;;;;;;5006166;28;20062;-57
2021/12/03 08:09:27;;;;;;;45.50;29.63;;;1.60;99.90;;;;;;5008771;28;20065;-57
2021/12/03 08:11:54;;;;;;;45.15;30.27;;;1.70;99.90;;;;;;5006449;28;20079;-57
2021/12/03 08:14:20;;;;;;;72.93;48.60;;;1.80;99.90;;;;;;4987296;28;20038;-55
2021/12/03 08:16:46;;;;;;;43.10;30.05;;;1.80;99.90;;;;;;5007300;28;20046;-58
2021/12/03 08:19:12;;;;;;;44.03;31.27;;;1.90;99.90;;;;;;4990989;28;20046;-60
2021/12/03 08:21:38;;;;;;;45.08;31.13;;;1.90;99.90;;;;;;4992560;28;20469;-61
2021/12/03 08:24:05;;;;;;;46.95;34.25;;;2.00;99.90;;;;;;5007251;28;20046;-60
2021/12/03 08:26:32;;;;;;;51.00;32.05;;;2.00;99.90;;;;;;5013248;28;20401;-60
2021/12/03 08:28:59;;;;;;;45.92;33.58;;;2.00;99.90;;;;;;4996819;28;20455;-59
2021/12/03 08:31:25;;;;;;;55.47;34.10;;;2.00;99.90;;;;;;4996742;28;20046;-59
2021/12/03 08:33:52;;;;;;;53.42;35.28;;;2.00;99.90;;;;;;5008191;28;20482;-60
2021/12/03 08:36:19;;;;;;;52.42;37.90;;;2.00;99.90;;;;;;5010101;28;20129;-60
2021/12/03 08:38:45;;;;;;;56.20;36.25;;;2.10;99.90;;;;;;4993712;28;20050;-58
2021/12/03 08:41:17;;;;;;;53.47;36.30;;;2.10;99.90;;;;;;5009028;28;20042;-59
2021/12/03 08:43:48;;;;;;;52.55;39.08;;;2.10;99.90;;;;;;5006935;28;20489;-59
2021/12/03 08:46:38;;;;;;;57.38;38.17;;;2.10;99.90;;;;;;5001003;28;20053;-57
2021/12/03 08:49:26;;;;;;;58.33;40.60;;;2.20;99.90;;;;;;5012437;28;20056;-58
2021/12/03 08:52:21;;;;;;;58.25;40.85;;;2.10;99.90;;;;;;5005392;28;20379;-59
2021/12/03 08:54:52;;;;;;;60.58;41.33;;;2.10;99.90;;;;;;5010962;28;20410;-59
2021/12/03 08:57:31;;;;;;;61.30;41.65;;;2.10;99.90;;;;;;4976551;28;20132;-61
2021/12/03 09:00:16;;;;;;;63.30;42.75;;;2.20;99.90;;;;;;4992799;28;20050;-60
2021/12/03 09:02:43;;;;;;;64.18;40.75;;;2.20;99.90;;;;;;4994751;28;20042;-59
2021/12/03 09:05:11;;;;;;;71.38;45.20;;;2.20;99.90;;;;;;4999457;28;20145;-58
2021/12/03 09:07:38;;;;;;;65.65;42.67;;;2.20;99.90;;;;;;5031728;28;20056;-58
2021/12/03 09:10:10;;;;;;;64.80;45.38;;;2.20;99.90;;;;;;5013877;28;20072;-59
2021/12/03 09:12:36;;;;;;;62.53;42.63;;;2.30;99.90;;;;;;5005623;28;20053;-58
2021/12/03 09:15:06;;;;;;;69.68;42.38;;;2.30;99.90;;;;;;4995620;28;20048;-59
2021/12/03 09:17:39;;;;;;;69.47;42.22;;;2.30;99.90;;;;;;5014024;28;20424;-59
2021/12/03 09:20:23;;;;;;;66.82;41.28;;;2.30;99.90;;;;;;4997305;28;20042;-59
2021/12/03 09:22:52;;;;;;;62.25;40.65;;;2.30;99.90;;;;;;5032067;28;20056;-60
2021/12/03 09:25:31;;;;;;;68.25;41.63;;;2.40;99.90;;;;;;5014170;28;20049;-60
2021/12/03 09:27:59;;;;;;;57.45;37.47;;;2.40;99.90;;;;;;5014433;28;20544;-60
2021/12/03 09:30:28;;;;;;;58.88;39.03;;;2.50;99.90;;;;;;4981675;28;20045;-60
2021/12/03 09:32:55;;;;;;;52.72;38.10;;;2.50;99.90;;;;;;5031622;28;20083;-60
2021/12/03 09:35:23;;;;;;;60.65;39.33;;;2.50;99.90;;;;;;5014051;28;20049;-60
2021/12/03 09:37:49;;;;;;;62.35;38.97;;;2.50;99.90;;;;;;5013867;28;20049;-60
2021/12/03 09:40:24;;;;;;;57.00;38.10;;;2.60;99.90;;;;;;5013407;28;20048;-59
2021/12/03 09:42:50;;;;;;;54.65;35.40;;;2.60;99.90;;;;;;5013935;28;20156;-59
2021/12/03 09:45:16;;;;;;;58.58;35.75;;;2.60;99.90;;;;;;5012885;28;20049;-60
2021/12/03 09:47:43;;;;;;;57.80;35.45;;;2.60;99.90;;;;;;5013594;28;20049;-60
2021/12/03 09:50:14;;;;;;;56.88;35.88;;;2.60;99.90;;;;;;5013103;28;20053;-60
2021/12/03 09:53:01;;;;;;;53.10;33.22;;;2.70;99.90;;;;;;5030873;28;20548;-58
2021/12/03 09:55:30;;;;;;;53.20;32.35;;;2.70;99.90;;;;;;5028964;28;20065;-59
2021/12/03 10:00:44;;;;;;;50.60;31.67;;;2.90;99.90;;;;;;5013360;28;20057;-58
2021/12/03 10:07:23;;;;;;;48.72;28.92;;;3.00;99.90;;;;;;4992329;28;20058;-58
2021/12/03 10:19:19;;;;;;;41.08;23.45;;;3.20;99.90;;;;;;5010702;28;20041;-59
2021/12/03 10:24:58;;;;;;;40.63;23.63;;;3.30;99.90;;;;;;5002393;28;20052;-59
2021/12/03 10:38:36;;;;;;;32.33;15.52;;;3.20;99.90;;;;;;4990620;28;20085;-60
2021/12/03 10:49:27;;;;;;;33.83;15.27;;;3.30;99.90;;;;;;4989738;28;20479;-58
2021/12/03 10:57:07;;;;;;;26.70;11.25;;;3.40;99.90;;;;;;4973469;28;20077;-58
2021/12/03 11:36:29;;;;;;;14.50;7.18;;;3.20;99.90;;;;;;4986135;28;20484;-60
2021/12/03 12:18:22;;;;;;;19.92;9.82;;;2.90;99.90;;;;;;5012619;28;20042;-60
2021/12/03 13:13:45;;;;;;;17.13;9.85;;;3.20;99.90;;;;;;5017437;28;20077;-60
2021/12/03 13:46:47;;;;;;;18.55;9.00;;;3.40;99.90;;;;;;5024555;28;20417;-58
2021/12/03 14:37:12;;;;;;;11.38;8.27;;;3.70;99.90;;;;;;5014654;28;20533;-59
2021/12/03 14:50:24;;;;;;;13.25;8.75;;;3.80;99.90;;;;;;4940037;28;20392;-59
2021/12/03 14:55:32;;;;;;;12.40;8.10;;;3.80;99.90;;;;;;5003004;28;20108;-60
2021/12/03 14:58:03;;;;;;;13.00;8.15;;;3.80;99.90;;;;;;5015545;28;20095;-60
2021/12/03 15:03:22;;;;;;;12.75;8.95;;;4.00;99.90;;;;;;4996375;28;20052;-60
2021/12/03 15:21:50;;;;;;;10.63;8.43;;;4.00;99.90;;;;;;4981236;28;20424;-60
2021/12/03 15:32:19;;;;;;;16.95;9.80;;;4.00;99.90;;;;;;5011984;28;20155;-60
2021/12/03 15:34:56;;;;;;;16.10;10.23;;;4.00;99.90;;;;;;5010999;28;20045;-64
2021/12/03 16:04:22;;;;;;;12.63;11.25;;;4.00;99.90;;;;;;5011851;28;20042;-64
2021/12/03 16:12:11;;;;;;;15.10;11.60;;;4.00;99.90;;;;;;5027503;28;20049;-64
2021/12/03 16:45:08;;;;;;;20.33;16.52;;;4.00;99.90;;;;;;5023090;28;20120;-59
2021/12/03 16:52:50;;;;;;;20.67;18.77;;;4.00;99.90;;;;;;5025494;28;20081;-59
2021/12/03 16:55:18;;;;;;;21.58;19.35;;;4.10;99.90;;;;;;5013186;28;20054;-58
2021/12/03 16:57:46;;;;;;;21.27;19.27;;;4.10;99.90;;;;;;5006869;28;20053;-58
2021/12/03 17:00:24;;;;;;;21.38;19.38;;;4.10;99.90;;;;;;5015153;28;20388;-59
2021/12/03 17:51:10;;;;;;;32.78;29.17;;;4.00;99.90;;;;;;5010858;28;20100;-56
2021/12/03 17:56:14;;;;;;;34.03;30.27;;;4.00;99.90;;;;;;5011582;28;20089;-45
2021/12/03 17:58:49;;;;;;;;;;;4.00;99.90;;;;;;5011457;28;20555;-48
2021/12/03 18:01:47;;;;;;;37.95;31.35;;;4.00;99.90;;;;;;4978635;28;19927;-46
2021/12/03 18:04:12;;;;;;;37.55;31.75;;;4.00;99.90;;;;;;4998491;28;20053;-52
2021/12/03 18:55:08;;;;;;;42.75;35.72;;;4.10;99.90;;;;;;5029142;28;20045;-54
2021/12/03 18:57:40;;;;;;;41.25;34.25;;;4.20;99.90;;;;;;4992195;28;20093;-54
2021/12/03 19:00:10;;;;;;;45.25;36.25;;;4.20;99.90;;;;;;4999041;28;20041;-55
2021/12/03 19:02:39;;;;;;;42.22;35.55;;;4.20;99.90;;;;;;5011545;28;20045;-54
2021/12/03 19:10:22;;;;;;;43.38;36.38;;;4.30;99.90;;;;;;4979669;28;20059;-55
2021/12/03 19:13:04;;;;;;;42.70;35.03;;;4.20;99.90;;;;;;5027474;28;20136;-53
2021/12/03 19:15:32;;;;;;;44.97;36.85;;;4.30;99.90;;;;;;5036042;28;20068;-54
2021/12/03 19:18:01;;;;;;;42.83;35.53;;;4.30;99.90;;;;;;5010953;28;20141;-54
2021/12/03 19:20:32;;;;;;;45.45;36.28;;;4.20;99.90;;;;;;5016653;28;20119;-54
2021/12/03 19:22:59;;;;;;;46.22;36.80;;;4.20;99.90;;;;;;5011126;28;20128;-54
2021/12/03 19:25:25;;;;;;;46.50;36.83;;;4.30;99.90;;;;;;5021014;28;20054;-55
2021/12/03 19:27:51;;;;;;;49.15;38.67;;;4.30;99.90;;;;;;5029222;28;20053;-52
2021/12/03 19:30:18;;;;;;;50.53;36.40;;;4.30;99.90;;;;;;5024555;28;20041;-54
2021/12/03 19:32:44;;;;;;;45.53;35.80;;;4.20;99.90;;;;;;5008602;28;20103;-55
2021/12/03 19:35:10;;;;;;;49.38;36.90;;;4.30;99.90;;;;;;5006884;28;20199;-51
2021/12/03 19:37:37;;;;;;;45.65;35.08;;;4.30;99.90;;;;;;5001169;28;20053;-55
2021/12/03 19:40:08;;;;;;;47.08;34.92;;;4.30;99.90;;;;;;4963712;28;20045;-54
2021/12/03 19:42:39;;;;;;;51.38;38.35;;;4.30;99.90;;;;;;5004638;28;20041;-54
2021/12/03 19:45:08;;;;;;;43.08;33.42;;;4.20;99.90;;;;;;5008812;28;20079;-52
2021/12/03 19:48:20;;;;;;;46.92;35.83;;;4.30;99.90;;;;;;5005201;28;20050;-53
2021/12/03 19:50:34;;;;;;;44.25;33.55;;;4.30;99.90;;;;;;4988526;28;20095;-54
2021/12/03 19:53:12;;;;;;;43.72;34.72;;;4.30;99.90;;;;;;4992721;28;20471;-54
2021/12/03 19:55:39;;;;;;;43.78;35.33;;;4.30;99.90;;;;;;5014533;28;20132;-53
2021/12/03 19:58:06;;;;;;;42.22;33.05;;;4.30;99.90;;;;;;5004311;28;20053;-53
2021/12/03 20:00:32;;;;;;;42.88;34.78;;;4.40;99.90;;;;;;5004203;28;20080;-54
2021/12/03 20:02:59;;;;;;;41.78;33.05;;;4.30;99.90;;;;;;5011344;28;20053;-53
2021/12/03 20:05:26;;;;;;;47.10;34.63;;;4.40;99.90;;;;;;5003652;28;20068;-54
2021/12/03 20:07:54;;;;;;;48.50;33.22;;;4.30;99.90;;;;;;4995103;28;20445;-53
2021/12/03 20:10:22;;;;;;;46.40;34.40;;;4.30;99.90;;;;;;5020726;28;20500;-53
2021/12/03 20:12:50;;;;;;;45.05;31.70;;;4.30;99.90;;;;;;4986338;28;20401;-51
2021/12/03 20:15:41;;;;;;;48.75;34.60;;;4.30;99.90;;;;;;5020910;28;20049;-53
2021/12/03 20:18:31;;;;;;;50.67;34.20;;;4.30;99.90;;;;;;5021720;28;20050;-47
2021/12/03 20:20:58;;;;;;;51.95;36.38;;;4.30;99.90;;;;;;4997458;28;20033;-47
2021/12/03 20:23:31;;;;;;;52.88;36.78;;;4.30;99.90;;;;;;5023672;28;20511;-49
2021/12/03 20:31:32;;;;;;;56.53;38.50;;;4.30;99.90;;;;;;4973590;28;20088;-48
2021/12/03 20:36:50;;;;;;;56.35;34.95;;;4.30;99.90;;;;;;4980880;28;20126;-52